createdAt,value
2022-10-13T00:00:57.738Z,96413.59
2022-10-13T00:03:01.714Z,96239.91
2022-10-13T00:05:04.837Z,96437.44
2022-10-13T00:07:08.918Z,96434.94
2022-10-13T00:09:11.718Z,96434.69
2022-10-13T00:11:16.896Z,96338.50
2022-10-13T00:13:20.218Z,96436.06
2022-10-13T00:15:25.842Z,96328.34
2022-10-13T00:17:28.492Z,96444.97
2022-10-13T00:19:31.721Z,96427.72
2022-10-13T00:21:34.422Z,96421.50
2022-10-13T00:23:38.821Z,96424.50
2022-10-13T00:25:43.266Z,96418.25
2022-10-13T00:27:46.042Z,96419.59
2022-10-13T00:29:48.810Z,96213.88
2022-10-13T00:31:51.608Z,96351.38
2022-10-13T00:33:54.758Z,96422.25
2022-10-13T00:35:57.590Z,96269.28
2022-10-13T00:38:00.381Z,96427.16
2022-10-13T00:40:09.414Z,96426.63
2022-10-13T00:42:13.651Z,96424.44
2022-10-13T00:44:54.889Z,96420.63
2022-10-13T00:46:57.729Z,96411.47
2022-10-13T00:49:03.247Z,96420.69
2022-10-13T00:51:06.711Z,96433.63
2022-10-13T00:53:11.635Z,96426.63
2022-10-13T00:55:19.067Z,96430.44
2022-10-13T00:57:22.065Z,96303.41
2022-10-13T00:59:28.933Z,96428.25
2022-10-13T01:01:32.651Z,96417.75
2022-10-13T01:03:36.253Z,96414.25
2022-10-13T01:05:40.685Z,96413.94
2022-10-13T01:07:44.696Z,96299.94
2022-10-13T01:09:47.416Z,96417.25
2022-10-13T01:12:05.641Z,96419.13
2022-10-13T01:14:15.306Z,96420.75
2022-10-13T01:16:29.262Z,96349.59
2022-10-13T01:18:40.351Z,96417.47
2022-10-13T01:21:11.207Z,95968.16
2022-10-13T01:23:31.563Z,96405.56
2022-10-13T01:25:57.447Z,96415.78
2022-10-13T01:28:23.013Z,96410.34
2022-10-13T01:30:27.285Z,96404.91
2022-10-13T01:32:34.395Z,96407.41
2022-10-13T01:34:45.119Z,96402.00
2022-10-13T01:36:58.906Z,96398.69
2022-10-13T01:39:08.601Z,96427.63
2022-10-13T01:41:18.246Z,96166.09
2022-10-13T01:43:24.626Z,96399.75
2022-10-13T01:45:33.484Z,96398.91
2022-10-13T01:47:37.549Z,96390.09
2022-10-13T01:49:41.062Z,96325.16
2022-10-13T01:51:45.549Z,96392.97
2022-10-13T01:53:49.262Z,96315.09
2022-10-13T01:55:53.528Z,96387.22
2022-10-13T01:57:56.365Z,96261.84
2022-10-13T01:59:59.941Z,96386.41
2022-10-13T02:02:13.548Z,96391.25
2022-10-13T02:04:27.105Z,96390.72
2022-10-13T02:06:33.993Z,96324.56
2022-10-13T02:08:41.339Z,96382.94
2022-10-13T02:10:52.346Z,96251.91
2022-10-13T02:13:00.764Z,96234.31
2022-10-13T02:15:05.788Z,96384.78
2022-10-13T02:17:11.305Z,96386.91
2022-10-13T02:19:18.196Z,96290.84
2022-10-13T02:21:20.944Z,96381.31
2022-10-13T02:23:25.587Z,96340.13
2022-10-13T02:25:29.429Z,96388.84
2022-10-13T02:27:34.576Z,96163.38
2022-10-13T02:29:50.179Z,96394.50
2022-10-13T02:31:54.710Z,96391.28
2022-10-13T02:33:58.830Z,96385.09
2022-10-13T02:36:01.561Z,96382.19
2022-10-13T02:38:04.490Z,96382.50
2022-10-13T02:40:08.446Z,96394.13
2022-10-13T02:42:11.381Z,96394.41
2022-10-13T02:44:14.082Z,96391.03
2022-10-13T02:46:16.996Z,96318.34
2022-10-13T02:48:20.207Z,96264.81
2022-10-13T02:50:24.387Z,96379.22
2022-10-13T02:52:27.288Z,96410.38
2022-10-13T02:54:30.082Z,96271.06
2022-10-13T02:56:32.891Z,96399.66
2022-10-13T02:58:35.655Z,96383.31
2022-10-13T03:00:39.659Z,96352.69
2022-10-13T03:02:42.718Z,96396.47
2022-10-13T03:04:45.792Z,95930.13
2022-10-13T03:06:49.910Z,96389.38
2022-10-13T03:08:52.637Z,96191.16
2022-10-13T03:10:57.441Z,96393.59
2022-10-13T03:13:00.480Z,96387.59
2022-10-13T03:15:03.257Z,96386.94
2022-10-13T03:17:11.059Z,96378.16
2022-10-13T03:19:16.011Z,96379.47
2022-10-13T03:21:22.542Z,96143.00
2022-10-13T03:23:27.196Z,96194.28
2022-10-13T03:25:30.027Z,96411.13
2022-10-13T03:27:33.005Z,96375.22
2022-10-13T03:29:35.808Z,96366.91
2022-10-13T03:31:38.576Z,96367.66
2022-10-13T03:33:41.887Z,96358.38
2022-10-13T03:35:44.655Z,96285.84
2022-10-13T03:37:47.511Z,96237.94
2022-10-13T03:39:51.644Z,96353.91
2022-10-13T03:41:54.461Z,96358.13
2022-10-13T03:43:57.192Z,96304.53
2022-10-13T03:46:01.661Z,96363.50
2022-10-13T03:48:04.669Z,96362.75
2022-10-13T03:50:08.577Z,96321.88
2022-10-13T03:52:11.480Z,96337.78
2022-10-13T03:54:14.704Z,96362.75
2022-10-13T03:56:26.267Z,96306.78
2022-10-13T03:58:29.292Z,96271.59
2022-10-13T04:00:32.011Z,96364.25
2022-10-13T04:02:35.257Z,96242.03
2022-10-13T04:04:39.095Z,96302.53
2022-10-13T04:06:41.865Z,96360.81
2022-10-13T04:08:45.026Z,96355.13
2022-10-13T04:10:47.789Z,96347.78
2022-10-13T04:12:51.854Z,96351.91
2022-10-13T04:14:56.213Z,96349.03
2022-10-13T04:16:58.904Z,96347.91
2022-10-13T04:19:04.049Z,96348.41
2022-10-13T04:21:10.154Z,96364.38
2022-10-13T04:23:12.861Z,96366.06
2022-10-13T04:25:24.156Z,96364.88
2022-10-13T04:27:27.008Z,96362.38
2022-10-13T04:29:31.679Z,96312.56
2022-10-13T04:31:34.923Z,96362.75
2022-10-13T04:33:37.651Z,96366.38
2022-10-13T04:35:41.437Z,96368.59
2022-10-13T04:37:45.193Z,96264.16
2022-10-13T04:39:48.316Z,96361.69
2022-10-13T04:41:51.073Z,96356.69
2022-10-13T04:43:54.778Z,96230.19
2022-10-13T04:46:02.935Z,96354.16
2022-10-13T04:48:05.940Z,96354.28
2022-10-13T04:50:09.783Z,96364.13
2022-10-13T04:52:12.555Z,96352.66
2022-10-13T04:54:15.334Z,96351.66
2022-10-13T04:56:19.222Z,96342.06
2022-10-13T04:58:22.176Z,96340.50
2022-10-13T05:00:24.939Z,96336.38
2022-10-13T05:02:29.186Z,96335.13
2022-10-13T05:04:31.837Z,96358.25
2022-10-13T05:06:48.565Z,96347.91
2022-10-13T05:08:59.623Z,96351.91
2022-10-13T05:11:03.945Z,96288.81
2022-10-13T05:13:09.490Z,96357.28
2022-10-13T05:15:12.489Z,96353.66
2022-10-13T05:17:15.548Z,96361.81
2022-10-13T05:19:20.217Z,96344.81
2022-10-13T05:21:27.087Z,96344.09
2022-10-13T05:23:29.735Z,96352.53
2022-10-13T05:25:33.974Z,96347.41
2022-10-13T05:27:36.924Z,96350.22
2022-10-13T05:29:42.301Z,96347.28
2022-10-13T05:31:44.994Z,96342.34
2022-10-13T05:33:48.994Z,96348.72
2022-10-13T05:36:06.238Z,96346.28
2022-10-13T05:38:12.032Z,96350.16
2022-10-13T05:40:15.339Z,96348.91
2022-10-13T05:42:18.367Z,96349.28
2022-10-13T05:44:22.052Z,96162.16
2022-10-13T05:46:31.245Z,96346.59
2022-10-13T05:48:33.884Z,96350.34
2022-10-13T05:50:37.280Z,96338.94
2022-10-13T05:52:42.975Z,96344.66
2022-10-13T05:54:49.292Z,96337.44
2022-10-13T05:56:57.986Z,96339.25
2022-10-13T05:59:06.878Z,96342.44
2022-10-13T06:01:12.958Z,96331.88
2022-10-13T06:03:18.771Z,96126.88
2022-10-13T06:05:23.866Z,96326.09
2022-10-13T06:07:30.043Z,96329.06
2022-10-13T06:09:37.736Z,96321.03
2022-10-13T06:11:40.472Z,96326.22
2022-10-13T06:13:43.215Z,96332.78
2022-10-13T06:15:45.933Z,96332.28
2022-10-13T06:17:48.671Z,96327.47
2022-10-13T06:19:51.455Z,96325.63
2022-10-13T06:21:54.315Z,96325.13
2022-10-13T06:23:57.187Z,96327.56
2022-10-13T06:26:01.234Z,96321.88
2022-10-13T06:28:04.299Z,96331.34
2022-10-13T06:30:08.303Z,96335.66
2022-10-13T06:32:12.861Z,96207.09
2022-10-13T06:34:15.719Z,96340.78
2022-10-13T06:36:20.551Z,96341.84
2022-10-13T06:38:23.295Z,96334.03
2022-10-13T06:40:26.138Z,96300.91
2022-10-13T06:42:31.760Z,96335.72
2022-10-13T06:44:46.308Z,96332.97
2022-10-13T06:46:49.129Z,96323.28
2022-10-13T06:48:52.249Z,96315.97
2022-10-13T06:50:56.722Z,96325.47
2022-10-13T06:52:59.461Z,96333.00
2022-10-13T06:55:02.145Z,96325.75
2022-10-13T06:57:06.907Z,96124.75
2022-10-13T06:59:11.817Z,96338.47
2022-10-13T07:01:15.379Z,96233.16
2022-10-13T07:03:18.235Z,96324.50
2022-10-13T07:05:20.943Z,96332.03
2022-10-13T07:07:23.660Z,96271.31
2022-10-13T07:09:26.350Z,96329.97
2022-10-13T07:11:29.065Z,96325.44
2022-10-13T07:13:34.993Z,96326.75
2022-10-13T07:15:41.923Z,96357.03
2022-10-13T07:17:45.874Z,96312.97
2022-10-13T07:19:49.272Z,96334.38
2022-10-13T07:21:52.019Z,96333.88
2022-10-13T07:23:56.180Z,96337.44
2022-10-13T07:25:59.388Z,96056.13
2022-10-13T07:28:02.078Z,96333.53
2022-10-13T07:30:05.869Z,96341.09
2022-10-13T07:32:09.917Z,96332.75
2022-10-13T07:34:14.083Z,96342.16
2022-10-13T07:36:17.124Z,96341.09
2022-10-13T07:38:19.912Z,96339.16
2022-10-13T07:40:24.047Z,96260.28
2022-10-13T07:42:26.789Z,96342.47
2022-10-13T07:44:29.629Z,96146.56
2022-10-13T07:46:32.454Z,96335.06
2022-10-13T07:48:37.074Z,96335.97
2022-10-13T07:50:39.798Z,96135.47
2022-10-13T07:52:42.497Z,96317.94
2022-10-13T07:54:47.658Z,96317.47
2022-10-13T07:56:52.426Z,96212.81
2022-10-13T07:58:55.447Z,96326.47
2022-10-13T08:00:59.486Z,96321.38
2022-10-13T08:03:02.542Z,96226.13
2022-10-13T08:05:07.284Z,96323.28
2022-10-13T08:07:10.234Z,96325.72
2022-10-13T08:09:13.011Z,96320.06
2022-10-13T08:11:17.747Z,96310.88
2022-10-13T08:13:20.606Z,96323.91
2022-10-13T08:15:23.319Z,96261.19
2022-10-13T08:17:26.061Z,96317.34
2022-10-13T08:19:29.233Z,96312.47
2022-10-13T08:23:55.990Z,96315.78
2022-10-13T08:25:58.973Z,96329.28
2022-10-13T08:28:01.700Z,96298.19
2022-10-13T08:30:05.078Z,96302.28
2022-10-13T08:32:08.515Z,96265.19
2022-10-13T08:34:11.935Z,96311.44
2022-10-13T08:36:15.205Z,96305.03
2022-10-13T08:38:19.453Z,96311.78
2022-10-13T08:40:23.769Z,96233.50
2022-10-13T08:42:26.503Z,96300.97
2022-10-13T08:47:10.227Z,96288.03
2022-10-13T08:49:15.556Z,96290.44
2022-10-13T08:51:18.617Z,96206.09
2022-10-13T08:53:29.043Z,96304.25
2022-10-13T08:55:36.481Z,96141.00
2022-10-13T08:57:41.677Z,96254.47
2022-10-13T08:59:44.509Z,96294.81
2022-10-13T09:01:49.322Z,96291.59
2022-10-13T09:03:54.613Z,96295.97
2022-10-13T09:06:11.571Z,96301.94
2022-10-13T09:08:20.254Z,96241.22
2022-10-13T09:10:24.617Z,96300.22
2022-10-13T09:12:28.057Z,96299.38
2022-10-13T09:14:33.102Z,96296.44
2022-10-13T09:16:38.444Z,96296.47
2022-10-13T09:18:45.254Z,96309.44
2022-10-13T09:20:50.924Z,96173.31
2022-10-13T09:23:05.155Z,96308.69
2022-10-13T09:25:11.520Z,96313.03
2022-10-13T09:27:17.296Z,96296.88
2022-10-13T09:29:22.204Z,96270.22
2022-10-13T09:31:27.447Z,96299.28
2022-10-13T09:33:30.300Z,96058.91
2022-10-13T09:35:34.910Z,96303.34
2022-10-13T09:37:37.786Z,96294.97
2022-10-13T09:39:40.461Z,96223.53
2022-10-13T09:41:44.825Z,96277.09
2022-10-13T09:44:05.739Z,96289.56
2022-10-13T09:46:14.833Z,96283.84
2022-10-13T09:48:22.474Z,96285.16
2022-10-13T09:50:28.094Z,96083.44
2022-10-13T09:52:30.849Z,96221.38
2022-10-13T09:54:46.558Z,96290.06
2022-10-13T09:56:55.044Z,96292.19
2022-10-13T09:59:07.689Z,96288.94
2022-10-13T10:01:20.211Z,96258.09
2022-10-13T10:03:25.602Z,95904.63
2022-10-13T10:05:33.493Z,96232.09
2022-10-13T10:07:36.172Z,96286.97
2022-10-13T10:09:41.128Z,95969.16
2022-10-13T10:11:48.994Z,96281.00
2022-10-13T10:13:52.618Z,96284.25
2022-10-13T10:16:03.005Z,96278.53
2022-10-13T10:18:09.772Z,96284.47
2022-10-13T10:20:33.476Z,96175.50
2022-10-13T10:22:41.072Z,96279.53
2022-10-13T10:24:51.532Z,96293.91
2022-10-13T10:26:57.887Z,96282.25
2022-10-13T10:29:17.074Z,96283.91
2022-10-13T10:31:37.853Z,96082.81
2022-10-13T10:33:54.998Z,96282.28
2022-10-13T10:36:03.602Z,96270.56
2022-10-13T10:38:21.478Z,96273.75
2022-10-13T10:40:37.848Z,96279.06
2022-10-13T10:43:04.189Z,96230.41
2022-10-13T10:45:16.882Z,96082.38
2022-10-13T10:47:26.423Z,96260.34
2022-10-13T10:49:32.431Z,96256.28
2022-10-13T10:51:38.981Z,96275.84
2022-10-13T10:53:53.367Z,96248.25
2022-10-13T10:56:03.013Z,96246.81
2022-10-13T10:58:19.842Z,96248.34
2022-10-13T11:00:23.929Z,96240.19
2022-10-13T11:02:42.767Z,96138.63
2022-10-13T11:04:46.662Z,96257.16
2022-10-13T11:06:49.415Z,96014.66
2022-10-13T11:08:52.156Z,96233.34
2022-10-13T11:11:33.415Z,96241.44
2022-10-13T11:13:52.772Z,96111.81
2022-10-13T11:15:55.630Z,96240.03
2022-10-13T11:17:59.917Z,96241.16
2022-10-13T11:20:41.193Z,96236.22
2022-10-13T11:23:34.303Z,96175.72
2022-10-13T11:25:40.580Z,96224.66
2022-10-13T11:27:45.142Z,96186.78
2022-10-13T11:29:58.035Z,96220.97
2022-10-13T11:32:00.793Z,96221.03
2022-10-13T11:34:26.884Z,96219.56
2022-10-13T11:36:48.737Z,96215.41
2022-10-13T11:39:00.160Z,96209.00
2022-10-13T11:41:16.704Z,96206.75
2022-10-13T11:43:32.564Z,96245.13
2022-10-13T11:46:00.944Z,96202.59
2022-10-13T11:48:34.102Z,96210.44
2022-10-13T11:50:44.199Z,96029.59
2022-10-13T11:53:06.471Z,95778.34
2022-10-13T11:55:16.243Z,96185.69
2022-10-13T11:57:22.249Z,96139.84
2022-10-13T11:59:27.501Z,96174.63
2022-10-13T12:01:31.374Z,96176.75
2022-10-13T12:03:36.709Z,96169.44
2022-10-13T12:05:43.608Z,96157.75
2022-10-13T12:07:48.628Z,96152.94
2022-10-13T12:09:53.564Z,96148.50
2022-10-13T12:12:01.446Z,96144.97
2022-10-13T12:14:07.745Z,96122.59
2022-10-13T12:16:14.540Z,96122.69
2022-10-13T12:18:24.547Z,96131.16
2022-10-13T12:20:29.321Z,96116.84
2022-10-13T12:22:36.811Z,96138.75
2022-10-13T12:24:42.910Z,96134.31
2022-10-13T12:26:45.664Z,96135.22
2022-10-13T12:28:51.871Z,96142.69
2022-10-13T12:30:57.020Z,96134.41
2022-10-13T12:33:01.113Z,96124.13
2022-10-13T12:35:19.608Z,96131.69
2022-10-13T12:37:30.927Z,96131.38
2022-10-13T12:39:36.717Z,96124.53
2022-10-13T12:41:43.728Z,96112.00
2022-10-13T12:43:47.531Z,96090.00
2022-10-13T12:45:50.432Z,96112.66
2022-10-13T12:47:54.656Z,96112.22
2022-10-13T12:50:22.406Z,96098.25
2022-10-13T12:52:26.098Z,95808.84
2022-10-13T12:54:32.339Z,96100.47
2022-10-13T12:56:37.021Z,96092.03
2022-10-13T12:58:44.477Z,96077.09
2022-10-13T13:00:56.793Z,96023.72
2022-10-13T13:03:01.685Z,95951.59
2022-10-13T13:05:04.495Z,96106.16
2022-10-13T13:07:27.724Z,96107.03
2022-10-13T13:09:32.227Z,96067.97
2022-10-13T13:11:38.173Z,96074.84
2022-10-13T13:13:42.438Z,96111.25
2022-10-13T13:15:45.423Z,96112.09
2022-10-13T13:18:03.564Z,96107.97
2022-10-13T13:20:20.311Z,96047.66
2022-10-13T13:22:23.314Z,96108.13
2022-10-13T13:24:36.075Z,96113.66
2022-10-13T13:26:48.365Z,96091.13
2022-10-13T13:28:53.041Z,96117.97
2022-10-13T13:30:55.914Z,96108.69
2022-10-13T13:32:58.706Z,96104.06
2022-10-13T13:35:01.487Z,96091.72
2022-10-13T13:37:04.262Z,96089.66
2022-10-13T13:39:07.770Z,96094.09
2022-10-13T13:41:11.884Z,96097.19
2022-10-13T13:43:15.933Z,96104.16
2022-10-13T13:45:20.976Z,96082.00
2022-10-13T13:47:27.789Z,96104.34
2022-10-13T13:49:30.618Z,96046.19
2022-10-13T13:51:33.464Z,96094.97
2022-10-13T13:53:36.220Z,96092.75
2022-10-13T13:55:39.078Z,96090.19
2022-10-13T13:57:43.721Z,96090.84
2022-10-13T13:59:47.842Z,96084.47
2022-10-13T14:01:50.539Z,96083.75
2022-10-13T14:03:57.924Z,96084.94
2022-10-13T14:06:00.937Z,96086.25
2022-10-13T14:08:04.295Z,96088.75
2022-10-13T14:10:09.020Z,96086.94
2022-10-13T14:12:11.886Z,96090.91
2022-10-13T14:14:14.628Z,96022.13
2022-10-13T14:16:18.869Z,96045.19
2022-10-13T14:18:21.603Z,96092.81
2022-10-13T14:20:24.395Z,96090.09
2022-10-13T14:22:27.457Z,96099.28
2022-10-13T14:24:30.308Z,96104.44
2022-10-13T14:26:33.734Z,96096.84
2022-10-13T14:28:36.466Z,96088.16
2022-10-13T14:30:40.706Z,95880.47
2022-10-13T14:32:44.834Z,96089.84
2022-10-13T14:34:47.626Z,96094.78
2022-10-13T14:36:50.316Z,96053.03
2022-10-13T14:38:54.934Z,96091.72
2022-10-13T14:41:01.222Z,95965.03
2022-10-13T14:43:04.016Z,95869.06
2022-10-13T14:45:08.251Z,96092.78
2022-10-13T14:47:10.983Z,96081.28
2022-10-13T14:49:15.281Z,96086.88
2022-10-13T14:51:18.728Z,96094.41
2022-10-13T14:53:21.479Z,96087.13
2022-10-13T14:55:24.203Z,96094.72
2022-10-13T14:57:26.912Z,96029.31
2022-10-13T14:59:29.939Z,96094.47
2022-10-13T15:01:33.525Z,96081.41
2022-10-13T15:03:36.329Z,96082.91
2022-10-13T15:05:40.728Z,96084.53
2022-10-13T15:07:43.429Z,96090.69
2022-10-13T15:10:00.503Z,96089.25
2022-10-13T15:12:07.239Z,96077.69
2022-10-13T15:14:10.749Z,96089.97
2022-10-13T15:16:17.330Z,96078.84
2022-10-13T15:18:20.123Z,96077.19
2022-10-13T15:20:23.081Z,96093.09
2022-10-13T15:22:27.390Z,96084.91
2022-10-13T15:24:30.205Z,96093.06
2022-10-13T15:26:37.877Z,96107.00
2022-10-13T15:28:42.649Z,96021.81
2022-10-13T15:30:46.525Z,96097.53
2022-10-13T15:32:51.178Z,96095.28
2022-10-13T15:34:54.454Z,96092.59
2022-10-13T15:36:57.183Z,96095.47
2022-10-13T15:39:01.403Z,96097.56
2022-10-13T15:41:06.326Z,96089.41
2022-10-13T15:43:09.529Z,96093.28
2022-10-13T15:45:12.273Z,96089.22
2022-10-13T15:47:17.182Z,96091.03
2022-10-13T15:49:20.316Z,96088.25
2022-10-13T15:51:26.862Z,96073.69
2022-10-13T15:53:30.733Z,96027.53
2022-10-13T15:55:35.017Z,96102.75
2022-10-13T15:57:38.131Z,96104.72
2022-10-13T15:59:40.899Z,96104.22
2022-10-13T16:01:43.639Z,96102.16
2022-10-13T16:03:46.349Z,96091.50
2022-10-13T16:05:49.053Z,96097.16
2022-10-13T16:07:51.779Z,96071.41
2022-10-13T16:09:54.529Z,96095.59
2022-10-13T16:11:58.571Z,96093.38
2022-10-13T16:14:01.336Z,96104.09
2022-10-13T16:16:04.072Z,96090.69
2022-10-13T16:18:07.033Z,96099.75
2022-10-13T16:20:11.543Z,96093.81
2022-10-13T16:22:14.352Z,96097.56
2022-10-13T16:24:17.084Z,96091.59
2022-10-13T16:26:22.261Z,95931.94
2022-10-13T16:28:26.437Z,96096.06
2022-10-13T16:30:30.384Z,96086.38
2022-10-13T16:32:38.868Z,95972.22
2022-10-13T16:34:41.598Z,96079.88
2022-10-13T16:36:44.310Z,95953.06
2022-10-13T16:38:48.182Z,96095.56
2022-10-13T16:40:50.914Z,96086.63
2022-10-13T16:42:53.638Z,96086.94
2022-10-13T16:44:57.749Z,96006.97
2022-10-13T16:47:04.812Z,96012.88
2022-10-13T16:49:07.607Z,96082.81
2022-10-13T16:51:13.427Z,96085.88
2022-10-13T16:53:16.138Z,96083.19
2022-10-13T16:55:18.796Z,95889.91
2022-10-13T16:57:21.765Z,96081.06
2022-10-13T16:59:25.230Z,96084.41
2022-10-13T17:01:30.230Z,96088.75
2022-10-13T17:03:33.272Z,96078.00
2022-10-13T17:05:35.995Z,96076.88
2022-10-13T17:07:39.068Z,96020.41
2022-10-13T17:09:41.816Z,96080.63
2022-10-13T17:11:44.652Z,96079.22
2022-10-13T17:13:47.859Z,96057.66
2022-10-13T17:15:51.690Z,96084.09
2022-10-13T17:17:56.500Z,96085.19
2022-10-13T17:19:59.235Z,96094.69
2022-10-13T17:22:02.013Z,96093.88
2022-10-13T17:24:05.065Z,96099.56
2022-10-13T17:26:14.007Z,96098.78
2022-10-13T17:28:17.190Z,96103.41
2022-10-13T17:30:20.056Z,95955.38
2022-10-13T17:32:23.208Z,96006.69
2022-10-13T17:34:27.342Z,96115.34
2022-10-13T17:36:32.222Z,95936.75
2022-10-13T17:38:37.136Z,96104.22
2022-10-13T17:40:39.841Z,96120.75
2022-10-13T17:42:42.525Z,96110.22
2022-10-13T17:44:45.231Z,96109.66
2022-10-13T17:46:48.635Z,95882.72
2022-10-13T17:48:51.638Z,96116.13
2022-10-13T17:50:55.700Z,96114.25
2022-10-13T17:52:58.442Z,96110.22
2022-10-13T17:55:04.444Z,95940.72
2022-10-13T17:57:07.151Z,95751.78
2022-10-13T17:59:10.248Z,96106.13
2022-10-13T18:01:14.970Z,96105.03
2022-10-13T18:03:17.739Z,96108.56
2022-10-13T18:05:20.475Z,96104.50
2022-10-13T18:07:24.642Z,96100.44
2022-10-13T18:09:27.418Z,96109.66
2022-10-13T18:11:30.483Z,96101.78
2022-10-13T18:13:33.565Z,96107.75
2022-10-13T18:15:37.035Z,96111.00
2022-10-13T18:17:39.766Z,96112.34
2022-10-13T18:19:42.889Z,95881.13
2022-10-13T18:21:45.634Z,95969.41
2022-10-13T18:23:50.033Z,96073.44
2022-10-13T18:25:52.801Z,96111.53
2022-10-13T18:27:57.051Z,96054.50
2022-10-13T18:30:00.131Z,96107.78
2022-10-13T18:32:05.236Z,96028.31
2022-10-13T18:34:10.194Z,96095.63
2022-10-13T18:36:16.043Z,96092.91
2022-10-13T18:38:20.029Z,96046.94
2022-10-13T18:40:24.437Z,96099.66
2022-10-13T18:42:27.646Z,96097.75
2022-10-13T18:44:30.373Z,96037.75
2022-10-13T18:46:33.898Z,96131.00
2022-10-13T18:48:36.711Z,96108.00
2022-10-13T18:50:40.184Z,96093.16
2022-10-13T18:52:42.857Z,95829.47
2022-10-13T18:54:46.297Z,96068.84
2022-10-13T18:56:50.382Z,96103.44
2022-10-13T18:58:59.140Z,96068.28
2022-10-13T19:01:04.176Z,95938.28
2022-10-13T19:03:07.050Z,96101.53
2022-10-13T19:05:10.773Z,95894.84
2022-10-13T19:07:13.539Z,96107.22
2022-10-13T19:09:17.344Z,96105.56
2022-10-13T19:11:21.881Z,96117.50
2022-10-13T19:13:26.662Z,96027.47
2022-10-13T19:15:29.469Z,96108.84
2022-10-13T19:17:33.467Z,96038.03
2022-10-13T19:19:36.211Z,96104.50
2022-10-13T19:21:39.613Z,95791.44
2022-10-13T19:23:45.033Z,96096.94
2022-10-13T19:25:57.167Z,95969.94
2022-10-13T19:27:59.985Z,96099.91
2022-10-13T19:30:04.668Z,96103.97
2022-10-13T19:32:07.866Z,96098.03
2022-10-13T19:34:12.349Z,96058.84
2022-10-13T19:36:22.457Z,96107.22
2022-10-13T19:38:25.097Z,96005.03
2022-10-13T19:40:27.734Z,96108.31
2022-10-13T19:42:30.366Z,96112.09
2022-10-13T19:44:33.533Z,96108.03
2022-10-13T19:46:38.102Z,96113.44
2022-10-13T19:48:40.892Z,96109.38
2022-10-13T19:50:43.726Z,96106.41
2022-10-13T19:52:49.122Z,96115.03
2022-10-13T19:54:51.879Z,96113.91
2022-10-13T19:56:55.062Z,96109.06
2022-10-13T19:58:57.928Z,96047.69
2022-10-13T20:01:03.469Z,96134.72
2022-10-13T20:03:07.626Z,96107.16
2022-10-13T20:05:11.807Z,96173.91
2022-10-13T20:07:14.560Z,96112.84
2022-10-13T20:09:18.501Z,96114.47
2022-10-13T20:11:24.159Z,96112.53
2022-10-13T20:13:27.367Z,96044.94
2022-10-13T20:15:40.523Z,96123.34
2022-10-13T20:17:43.410Z,96083.06
2022-10-13T20:19:47.862Z,95998.88
2022-10-13T20:21:51.702Z,96123.31
2022-10-13T20:23:55.445Z,96120.53
2022-10-13T20:26:02.065Z,95912.16
2022-10-13T20:28:08.860Z,96131.59
2022-10-13T20:30:12.625Z,96131.81
2022-10-13T20:32:17.255Z,96126.47
2022-10-13T20:34:20.003Z,96135.34
2022-10-13T20:36:25.198Z,96141.03
2022-10-13T20:38:29.673Z,96133.22
2022-10-13T20:40:32.956Z,96058.22
2022-10-13T20:42:35.710Z,96132.69
2022-10-13T20:44:38.523Z,96064.94
2022-10-13T20:46:41.237Z,96143.44
2022-10-13T20:49:09.375Z,96135.78
2022-10-13T20:51:11.413Z,96129.94
2022-10-13T20:53:15.463Z,96136.69
2022-10-13T20:55:19.202Z,96125.09
2022-10-13T20:57:22.614Z,96119.84
2022-10-13T20:59:26.367Z,96129.59
2022-10-13T21:01:29.060Z,96011.56
2022-10-13T21:03:32.042Z,96118.75
2022-10-13T21:05:40.482Z,96123.53
2022-10-13T21:07:43.180Z,96120.59
2022-10-13T21:09:51.451Z,96121.41
2022-10-13T21:11:56.253Z,96100.63
2022-10-13T21:13:59.720Z,96117.56
2022-10-13T21:16:07.450Z,96145.88
2022-10-13T21:18:10.926Z,96135.03
2022-10-13T21:20:15.832Z,96126.31
2022-10-13T21:22:18.519Z,96130.38
2022-10-13T21:24:21.288Z,96137.91
2022-10-13T21:26:26.773Z,96096.91
2022-10-13T21:28:29.753Z,96135.78
2022-10-13T21:30:33.092Z,96133.09
2022-10-13T21:32:35.813Z,96151.66
2022-10-13T21:34:38.478Z,96143.38
2022-10-13T21:36:44.330Z,96133.69
2022-10-13T21:38:51.552Z,96131.84
2022-10-13T21:40:54.632Z,96123.53
2022-10-13T21:42:58.648Z,96120.78
2022-10-13T21:45:01.515Z,96134.19
2022-10-13T21:47:04.247Z,96128.31
2022-10-13T21:49:07.136Z,96117.50
2022-10-13T21:51:14.968Z,95910.13
2022-10-13T21:53:17.804Z,96121.00
2022-10-13T21:55:20.522Z,96129.88
2022-10-13T21:57:24.040Z,96136.44
2022-10-13T21:59:28.306Z,96135.69
2022-10-13T22:01:31.325Z,96113.09
2022-10-13T22:03:35.013Z,96121.81
2022-10-13T22:05:38.180Z,95965.88
2022-10-13T22:07:40.857Z,96021.13
2022-10-13T22:09:43.553Z,95876.91
2022-10-13T22:11:46.247Z,95791.00
2022-10-13T22:13:48.999Z,96054.47
2022-10-13T22:15:53.062Z,96125.09
2022-10-13T22:17:56.317Z,96003.41
2022-10-13T22:19:59.896Z,96155.09
2022-10-13T22:22:03.088Z,96121.84
2022-10-13T22:24:07.574Z,96127.03
2022-10-13T22:26:10.891Z,96126.84
2022-10-13T22:28:13.629Z,96120.16
2022-10-13T22:30:18.164Z,96123.69
2022-10-13T22:32:22.164Z,95920.22
2022-10-13T22:34:25.431Z,96128.56
2022-10-13T22:36:30.725Z,96127.25
2022-10-13T22:38:33.431Z,95917.22
2022-10-13T22:40:39.537Z,96127.44
2022-10-13T22:42:42.241Z,96127.81
2022-10-13T22:44:44.957Z,96132.72
2022-10-13T22:46:47.617Z,96130.91
2022-10-13T22:48:52.025Z,96096.00
2022-10-13T22:50:54.879Z,96129.66
2022-10-13T22:52:57.588Z,96134.00
2022-10-13T22:55:00.363Z,96145.63
2022-10-13T22:57:03.013Z,96124.31
2022-10-13T22:59:07.966Z,96134.84
2022-10-13T23:01:14.906Z,95928.16
2022-10-13T23:03:18.098Z,96133.53
2022-10-13T23:05:23.199Z,96129.22
2022-10-13T23:07:25.917Z,95562.53
2022-10-13T23:09:28.752Z,96066.31
2022-10-13T23:11:31.497Z,96039.44
2022-10-13T23:13:35.910Z,96120.06
2022-10-13T23:15:40.157Z,96121.69
2022-10-13T23:17:42.844Z,96121.69
2022-10-13T23:19:45.547Z,96116.84
2022-10-13T23:21:49.568Z,95921.97
2022-10-13T23:23:57.179Z,96101.13
2022-10-13T23:26:03.542Z,96107.91
2022-10-13T23:28:06.392Z,96104.38
2022-10-13T23:30:10.198Z,95970.22
2022-10-13T23:32:12.928Z,96033.72
2022-10-13T23:34:18.158Z,96090.84
2022-10-13T23:36:22.549Z,96097.38
2022-10-13T23:38:28.931Z,96100.06
2022-10-13T23:40:31.649Z,96102.47
2022-10-13T23:42:34.359Z,96107.06
2022-10-13T23:44:37.083Z,96004.38
2022-10-13T23:46:39.924Z,96106.53
2022-10-13T23:48:46.117Z,96111.66
2022-10-13T23:50:48.829Z,96099.22
2022-10-13T23:52:51.524Z,96104.09
2022-10-13T23:54:55.596Z,96093.31
2022-10-13T23:56:59.826Z,96097.91
2022-10-13T23:59:02.673Z,96051.63
